Terminal Aerodrome Forecast
Issued by NWS

Home | Current Version | Previous Version | Text Only | Print | Product List | Glossary On
Versions: 1 2 3 4 5 6 7 8 9 10 11 12
384
FTUS46 KSGX 072320
TAFCRQ
TAF
KCRQ 072320Z 0800/0824 VRB04KT P6SM SKC
     FM080800 06007KT P6SM SKC WS015/09025KT
     FM081900 10011G18KT P6SM SKC=

USA.gov is the U.S. government's official web portal to all federal, state and local government web resources and services.